createdAt,value
2022-11-06T00:01:08.709Z,9.20
2022-11-06T00:03:30.266Z,8.30
2022-11-06T00:06:10.298Z,8.23
2022-11-06T00:08:39.092Z,8.47
2022-11-06T00:11:01.158Z,8.63
2022-11-06T00:13:22.963Z,7.60
2022-11-06T00:15:44.460Z,8.80
2022-11-06T00:18:05.976Z,9.47
2022-11-06T00:20:27.482Z,8.27
2022-11-06T00:22:49.012Z,8.67
2022-11-06T00:25:11.110Z,8.63
2022-11-06T00:27:36.199Z,7.33
2022-11-06T00:29:57.670Z,8.27
2022-11-06T00:32:19.167Z,9.00
2022-11-06T00:34:40.627Z,8.13
2022-11-06T00:37:02.139Z,8.23
2022-11-06T00:39:23.728Z,8.33
2022-11-06T00:41:45.206Z,8.30
2022-11-06T00:44:06.667Z,8.23
2022-11-06T00:46:28.694Z,8.30
2022-11-06T00:48:50.682Z,8.77
2022-11-06T00:51:18.378Z,9.43
2022-11-06T00:53:40.566Z,9.43
2022-11-06T00:56:11.117Z,9.20
2022-11-06T00:58:32.733Z,7.80
2022-11-06T01:00:54.208Z,7.53
2022-11-06T01:03:15.691Z,8.33
2022-11-06T01:05:37.166Z,8.00
2022-11-06T01:07:58.645Z,8.70
2022-11-06T01:10:20.151Z,7.67
2022-11-06T01:12:41.870Z,7.57
2022-11-06T01:15:03.601Z,7.90
2022-11-06T01:17:25.234Z,7.13
2022-11-06T01:19:46.964Z,7.13
2022-11-06T01:22:08.663Z,7.80
2022-11-06T01:24:30.640Z,6.97
2022-11-06T01:27:24.254Z,7.90
2022-11-06T01:29:34.622Z,7.90
2022-11-06T01:31:56.113Z,7.63
2022-11-06T01:34:19.594Z,7.90
2022-11-06T01:36:41.187Z,7.93
2022-11-06T01:39:05.308Z,8.40
2022-11-06T01:41:32.974Z,8.13
2022-11-06T01:43:57.698Z,7.93
2022-11-06T01:46:20.964Z,7.63
2022-11-06T01:48:47.530Z,7.83
2022-11-06T01:51:09.289Z,7.50
2022-11-06T01:53:30.992Z,7.90
2022-11-06T01:55:58.494Z,7.63
2022-11-06T01:58:22.624Z,7.23
2022-11-06T02:00:44.779Z,7.97
2022-11-06T02:03:07.054Z,7.80
2022-11-06T02:05:28.958Z,7.77
2022-11-06T02:07:51.671Z,7.90
2022-11-06T02:10:13.227Z,10.00
2022-11-06T02:13:10.175Z,10.43
2022-11-06T02:15:39.185Z,8.67
2022-11-06T02:18:18.959Z,9.83
2022-11-06T02:20:46.466Z,8.97
2022-11-06T02:23:29.654Z,7.90
2022-11-06T02:26:35.755Z,7.00
2022-11-06T02:29:18.758Z,6.50
2022-11-06T02:31:42.872Z,6.90
2022-11-06T02:34:12.211Z,6.60
2022-11-06T02:36:37.757Z,6.40
2022-11-06T02:39:03.256Z,6.30
2022-11-06T02:41:30.323Z,6.13
2022-11-06T02:43:58.056Z,5.67
2022-11-06T02:46:36.672Z,6.43
2022-11-06T02:49:43.068Z,5.80
2022-11-06T02:52:16.253Z,6.03
2022-11-06T02:54:43.183Z,6.07
2022-11-06T02:57:10.324Z,5.80
2022-11-06T02:59:46.965Z,5.70
2022-11-06T03:02:14.716Z,5.50
2022-11-06T03:04:55.477Z,5.93
2022-11-06T03:07:23.575Z,5.37
2022-11-06T03:09:45.600Z,5.37
2022-11-06T03:12:19.290Z,5.90
2022-11-06T03:15:06.271Z,5.43
2022-11-06T03:17:39.214Z,5.13
2022-11-06T03:20:31.511Z,5.57
2022-11-06T03:23:02.990Z,6.03
2022-11-06T03:25:29.941Z,5.43
2022-11-06T03:28:10.392Z,5.50
2022-11-06T03:30:41.875Z,5.67
2022-11-06T03:33:13.818Z,5.47
2022-11-06T03:35:42.909Z,5.80
2022-11-06T03:38:18.192Z,6.30
2022-11-06T03:40:45.304Z,7.00
2022-11-06T03:43:08.913Z,8.23
2022-11-06T03:45:32.959Z,9.43
2022-11-06T03:48:15.157Z,9.27
2022-11-06T03:50:43.132Z,9.13
2022-11-06T03:53:48.299Z,9.90
2022-11-06T03:56:17.338Z,9.30
2022-11-06T03:58:44.325Z,9.10
2022-11-06T04:01:08.683Z,9.73
2022-11-06T04:03:37.346Z,10.23
2022-11-06T04:06:05.596Z,10.00
2022-11-06T04:08:47.340Z,8.90
2022-11-06T04:11:30.967Z,8.53
2022-11-06T04:14:02.935Z,9.03
2022-11-06T04:16:27.410Z,9.20
2022-11-06T04:18:48.883Z,12.00
2022-11-06T04:21:25.831Z,10.37
2022-11-06T04:24:17.777Z,11.13
2022-11-06T04:26:53.581Z,10.83
2022-11-06T04:29:38.106Z,11.33
2022-11-06T04:32:42.164Z,10.43
2022-11-06T04:35:22.264Z,11.00
2022-11-06T04:38:00.658Z,10.40
2022-11-06T04:40:27.817Z,9.13
2022-11-06T04:42:58.395Z,8.47
2022-11-06T04:45:31.641Z,9.70
2022-11-06T04:47:54.924Z,9.37
2022-11-06T04:50:20.470Z,10.37
2022-11-06T04:52:43.559Z,10.57
2022-11-06T04:55:05.602Z,9.87
2022-11-06T04:57:27.289Z,9.57
2022-11-06T04:59:48.976Z,8.90
2022-11-06T05:02:11.300Z,9.20
2022-11-06T05:04:33.690Z,9.10
2022-11-06T05:06:55.291Z,8.43
2022-11-06T05:09:17.054Z,8.37
2022-11-06T05:11:38.530Z,7.53
2022-11-06T05:14:00.073Z,7.83
2022-11-06T05:16:21.628Z,7.97
2022-11-06T05:18:43.121Z,7.67
2022-11-06T05:21:23.240Z,8.17
2022-11-06T05:23:44.724Z,7.77
2022-11-06T05:26:07.508Z,8.57
2022-11-06T05:28:29.010Z,7.47
2022-11-06T05:30:50.480Z,7.70
2022-11-06T05:33:11.952Z,7.37
2022-11-06T05:35:33.436Z,8.20
2022-11-06T05:38:02.322Z,8.53
2022-11-06T05:40:23.750Z,8.97
2022-11-06T05:42:45.561Z,9.63
2022-11-06T05:45:07.979Z,9.93
2022-11-06T05:47:29.458Z,9.90
2022-11-06T05:49:51.180Z,9.47
2022-11-06T05:52:12.706Z,9.77
2022-11-06T05:54:34.196Z,9.87
2022-11-06T05:56:55.647Z,10.40
2022-11-06T05:59:17.158Z,10.23
2022-11-06T06:01:38.725Z,10.23
2022-11-06T06:04:00.365Z,9.50
2022-11-06T06:06:21.898Z,9.17
2022-11-06T06:08:43.386Z,8.63
2022-11-06T06:11:08.256Z,8.40
2022-11-06T06:13:29.748Z,8.23
2022-11-06T06:15:51.206Z,8.07
2022-11-06T06:18:13.639Z,7.23
2022-11-06T06:20:35.854Z,7.07
2022-11-06T06:22:58.751Z,7.00
2022-11-06T06:25:22.971Z,7.00
2022-11-06T06:27:44.736Z,7.40
2022-11-06T06:30:07.101Z,7.13
2022-11-06T06:32:28.581Z,6.97
2022-11-06T06:34:50.066Z,7.03
2022-11-06T06:37:12.786Z,7.20
2022-11-06T06:39:35.820Z,6.93
2022-11-06T06:41:57.280Z,7.23
2022-11-06T06:44:18.769Z,6.80
2022-11-06T06:46:40.271Z,6.87
2022-11-06T06:49:01.750Z,6.43
2022-11-06T06:51:24.120Z,6.90
2022-11-06T06:53:45.810Z,6.03
2022-11-06T06:56:07.440Z,6.77
2022-11-06T06:58:29.896Z,6.37
2022-11-06T07:00:51.448Z,7.00
2022-11-06T07:03:13.106Z,7.67
2022-11-06T07:05:34.586Z,8.70
2022-11-06T07:07:56.821Z,9.47
2022-11-06T07:10:18.728Z,8.37
2022-11-06T07:12:40.294Z,9.20
2022-11-06T07:15:01.805Z,9.33
2022-11-06T07:17:23.306Z,8.80
2022-11-06T07:19:44.809Z,9.87
2022-11-06T07:22:06.261Z,9.37
2022-11-06T07:24:27.803Z,9.80
2022-11-06T07:26:49.877Z,8.60
2022-11-06T07:29:11.439Z,8.00
2022-11-06T07:31:32.885Z,8.23
2022-11-06T07:33:54.378Z,8.40
2022-11-06T07:36:15.951Z,8.50
2022-11-06T07:38:39.076Z,8.00
2022-11-06T07:41:14.726Z,8.47
2022-11-06T07:43:36.983Z,8.47
2022-11-06T07:46:02.998Z,8.27
2022-11-06T07:48:24.477Z,8.63
2022-11-06T07:50:45.946Z,9.03
2022-11-06T07:53:07.997Z,8.97
2022-11-06T07:55:29.534Z,8.87
2022-11-06T07:57:51.032Z,8.57
2022-11-06T08:00:13.451Z,8.80
2022-11-06T08:02:35.152Z,8.67
2022-11-06T08:04:56.722Z,8.13
2022-11-06T08:07:18.183Z,7.60
2022-11-06T08:09:39.657Z,8.00
2022-11-06T08:12:01.880Z,6.97
2022-11-06T08:14:23.614Z,7.00
2022-11-06T08:16:45.098Z,6.30
2022-11-06T08:19:06.703Z,6.17
2022-11-06T08:21:28.344Z,6.63
2022-11-06T08:23:49.827Z,6.37
2022-11-06T08:26:11.590Z,6.40
2022-11-06T08:28:33.191Z,6.87
2022-11-06T08:30:54.995Z,7.00
2022-11-06T08:33:16.529Z,7.17
2022-11-06T08:35:38.298Z,8.60
2022-11-06T08:38:00.086Z,8.63
2022-11-06T08:40:23.415Z,9.50
2022-11-06T08:42:48.143Z,9.37
2022-11-06T08:45:10.045Z,8.30
2022-11-06T08:47:31.616Z,8.30
2022-11-06T08:49:53.150Z,8.20
2022-11-06T08:52:14.717Z,8.23
2022-11-06T08:54:36.183Z,7.73
2022-11-06T08:56:58.449Z,9.10
2022-11-06T08:59:19.938Z,8.43
2022-11-06T09:01:41.598Z,9.10
2022-11-06T09:04:03.238Z,9.57
2022-11-06T09:06:25.487Z,9.40
2022-11-06T09:08:46.994Z,9.83
2022-11-06T09:11:08.544Z,9.83
2022-11-06T09:13:30.030Z,8.30
2022-11-06T09:15:51.544Z,8.10
2022-11-06T09:18:13.076Z,8.97
2022-11-06T09:20:34.830Z,8.87
2022-11-06T09:23:04.693Z,8.50
2022-11-06T09:25:26.156Z,8.07
2022-11-06T09:27:57.635Z,8.27
2022-11-06T09:30:23.074Z,8.37
2022-11-06T09:32:49.446Z,8.33
2022-11-06T09:35:10.926Z,7.70
2022-11-06T09:37:32.419Z,7.30
2022-11-06T09:39:53.879Z,8.63
2022-11-06T09:42:44.859Z,7.47
2022-11-06T09:45:23.091Z,7.13
2022-11-06T09:47:50.018Z,7.70
2022-11-06T09:50:19.808Z,7.43
2022-11-06T09:53:07.542Z,7.40
2022-11-06T09:55:34.653Z,6.30
2022-11-06T09:58:00.142Z,6.80
2022-11-06T10:00:22.076Z,6.67
2022-11-06T10:02:49.558Z,6.60
2022-11-06T10:05:11.175Z,6.93
2022-11-06T10:07:39.599Z,7.57
2022-11-06T10:10:04.080Z,7.67
2022-11-06T10:12:31.403Z,7.63
2022-11-06T10:14:59.709Z,6.73
2022-11-06T10:17:56.689Z,6.80
2022-11-06T10:20:26.901Z,5.63
2022-11-06T10:23:13.314Z,6.40
2022-11-06T10:26:00.642Z,6.80
2022-11-06T10:28:42.577Z,6.73
2022-11-06T10:31:26.201Z,6.70
2022-11-06T10:34:12.239Z,9.10
2022-11-06T10:36:46.060Z,6.57
2022-11-06T10:39:19.960Z,6.57
2022-11-06T10:41:47.043Z,6.57
2022-11-06T10:44:26.234Z,6.77
2022-11-06T10:46:53.489Z,6.37
2022-11-06T10:49:28.395Z,6.60
2022-11-06T10:52:14.670Z,7.50
2022-11-06T10:54:58.015Z,6.17
2022-11-06T10:57:45.067Z,7.00
2022-11-06T11:00:11.974Z,6.83
2022-11-06T11:02:42.622Z,7.50
2022-11-06T11:05:13.089Z,6.67
2022-11-06T11:07:35.042Z,6.60
2022-11-06T11:09:56.536Z,8.47
2022-11-06T11:12:28.166Z,6.90
2022-11-06T11:15:12.075Z,9.57
2022-11-06T11:17:33.550Z,6.17
2022-11-06T11:19:55.118Z,6.83
2022-11-06T11:22:16.540Z,5.83
2022-11-06T11:24:58.887Z,6.57
2022-11-06T11:27:20.402Z,6.90
2022-11-06T11:29:44.838Z,6.53
2022-11-06T11:32:07.188Z,6.97
2022-11-06T11:34:32.244Z,7.20
2022-11-06T11:37:06.238Z,6.70
2022-11-06T11:39:36.871Z,7.27
2022-11-06T11:42:31.949Z,7.83
2022-11-06T11:45:09.889Z,8.27
2022-11-06T11:47:31.406Z,7.53
2022-11-06T11:49:52.881Z,8.23
2022-11-06T11:52:19.941Z,8.07
2022-11-06T11:54:55.691Z,7.93
2022-11-06T11:57:24.960Z,8.43
2022-11-06T11:59:50.759Z,7.93
2022-11-06T12:02:30.159Z,8.27
2022-11-06T12:04:56.321Z,8.07
2022-11-06T12:07:27.111Z,8.03
2022-11-06T12:09:48.785Z,8.40
2022-11-06T12:12:23.765Z,8.57
2022-11-06T12:14:45.304Z,7.83
2022-11-06T12:17:21.683Z,8.23
2022-11-06T12:19:50.313Z,7.97
2022-11-06T12:22:41.890Z,8.60
2022-11-06T12:25:14.769Z,8.70
2022-11-06T12:27:43.808Z,8.33
2022-11-06T12:30:07.303Z,8.23
2022-11-06T12:32:53.100Z,8.17
2022-11-06T12:35:40.341Z,7.60
2022-11-06T12:38:24.428Z,7.63
2022-11-06T12:40:57.266Z,7.40
2022-11-06T12:43:40.943Z,7.37
2022-11-06T12:46:29.276Z,7.60
2022-11-06T12:49:21.833Z,7.70
2022-11-06T12:51:47.614Z,7.40
2022-11-06T12:54:41.280Z,6.83
2022-11-06T12:57:21.616Z,7.83
2022-11-06T13:00:00.022Z,12.20
2022-11-06T13:03:00.115Z,6.20
2022-11-06T13:05:46.783Z,6.10
2022-11-06T13:08:44.085Z,6.00
2022-11-06T13:11:45.226Z,6.03
2022-11-06T13:14:34.774Z,5.83
2022-11-06T13:17:11.195Z,6.10
2022-11-06T13:19:32.617Z,6.20
2022-11-06T13:22:24.761Z,5.50
2022-11-06T13:24:53.842Z,6.43
2022-11-06T13:27:28.356Z,6.00
2022-11-06T13:29:51.178Z,6.13
2022-11-06T13:32:17.693Z,5.83
2022-11-06T13:34:42.232Z,5.60
2022-11-06T13:37:12.501Z,5.80
2022-11-06T13:39:40.910Z,5.70
2022-11-06T13:42:05.330Z,5.70
2022-11-06T13:44:27.445Z,6.17
2022-11-06T13:46:54.435Z,5.47
2022-11-06T13:49:18.914Z,5.10
2022-11-06T13:52:03.190Z,5.07
2022-11-06T13:54:59.876Z,5.40
2022-11-06T13:57:40.070Z,4.77
2022-11-06T14:00:14.539Z,4.93
2022-11-06T14:03:10.123Z,4.80
2022-11-06T14:05:55.733Z,4.77
2022-11-06T14:08:28.216Z,4.90
2022-11-06T14:11:00.536Z,5.20
2022-11-06T14:13:28.019Z,4.53
2022-11-06T14:15:49.551Z,5.37
2022-11-06T14:18:22.261Z,5.50
2022-11-06T14:20:43.998Z,4.70
2022-11-06T14:23:30.201Z,6.27
2022-11-06T14:26:09.449Z,5.17
2022-11-06T14:28:33.857Z,4.83
2022-11-06T14:31:13.221Z,5.47
2022-11-06T14:33:42.131Z,5.50
2022-11-06T14:36:14.132Z,5.77
2022-11-06T14:38:36.121Z,5.03
2022-11-06T14:40:58.524Z,5.70
2022-11-06T14:43:22.174Z,5.83
2022-11-06T14:45:58.145Z,5.43
2022-11-06T14:48:50.581Z,5.93
2022-11-06T14:51:14.411Z,5.50
2022-11-06T14:53:40.105Z,5.63
2022-11-06T14:56:08.117Z,6.43
2022-11-06T14:58:36.298Z,6.60
2022-11-06T15:01:13.658Z,6.00
2022-11-06T15:03:44.431Z,7.00
2022-11-06T15:06:28.685Z,9.67
2022-11-06T15:08:50.113Z,12.23
2022-11-06T15:11:29.793Z,7.67
2022-11-06T15:13:51.281Z,6.30
2022-11-06T15:16:13.204Z,6.33
2022-11-06T15:18:36.397Z,5.63
2022-11-06T15:21:04.847Z,6.17
2022-11-06T15:23:38.993Z,6.03
2022-11-06T15:26:15.754Z,5.93
2022-11-06T15:29:06.645Z,5.50
2022-11-06T15:31:29.850Z,5.37
2022-11-06T15:33:56.024Z,5.80
2022-11-06T15:36:19.548Z,5.30
2022-11-06T15:38:42.835Z,5.10
2022-11-06T15:41:07.250Z,5.43
2022-11-06T15:43:35.709Z,5.47
2022-11-06T15:46:12.240Z,6.17
2022-11-06T15:48:33.949Z,5.27
2022-11-06T15:50:55.501Z,5.70
2022-11-06T15:53:22.129Z,5.23
2022-11-06T15:56:06.120Z,5.43
2022-11-06T15:58:35.922Z,5.87
2022-11-06T16:00:59.608Z,5.63
2022-11-06T16:03:26.905Z,5.50
2022-11-06T16:05:48.920Z,6.60
2022-11-06T16:08:13.216Z,6.27
2022-11-06T16:10:37.243Z,7.07
2022-11-06T16:12:59.047Z,6.40
2022-11-06T16:15:42.651Z,7.17
2022-11-06T16:18:06.237Z,7.20
2022-11-06T16:20:28.028Z,8.37
2022-11-06T16:22:49.519Z,7.67
2022-11-06T16:25:19.498Z,8.00
2022-11-06T16:27:41.939Z,8.20
2022-11-06T16:30:04.836Z,10.00
2022-11-06T16:32:29.695Z,9.40
2022-11-06T16:34:51.864Z,9.80
2022-11-06T16:37:16.081Z,9.50
2022-11-06T16:39:52.806Z,9.37
2022-11-06T16:42:35.969Z,9.17
2022-11-06T16:45:03.054Z,9.30
2022-11-06T16:47:24.644Z,11.03
2022-11-06T16:49:53.721Z,9.43
2022-11-06T16:52:18.560Z,8.13
2022-11-06T16:54:40.087Z,8.43
2022-11-06T16:57:13.390Z,8.20
2022-11-06T16:59:35.298Z,9.33
2022-11-06T17:01:56.923Z,9.27
2022-11-06T17:04:24.624Z,9.60
2022-11-06T17:06:46.572Z,9.73
2022-11-06T17:09:28.738Z,9.63
2022-11-06T17:11:55.169Z,8.80
2022-11-06T17:14:21.216Z,8.83
2022-11-06T17:16:49.696Z,10.07
2022-11-06T17:19:11.200Z,8.43
2022-11-06T17:21:32.715Z,9.97
2022-11-06T17:23:57.653Z,10.13
2022-11-06T17:26:28.545Z,9.37
2022-11-06T17:28:50.808Z,9.10
2022-11-06T17:31:14.712Z,9.70
2022-11-06T17:33:36.253Z,9.07
2022-11-06T17:35:57.817Z,10.40
2022-11-06T17:38:19.347Z,9.90
2022-11-06T17:40:41.972Z,10.90
2022-11-06T17:43:03.423Z,10.47
2022-11-06T17:45:25.066Z,11.37
2022-11-06T17:47:46.547Z,11.10
2022-11-06T17:50:08.686Z,10.90
2022-11-06T17:52:31.179Z,10.33
2022-11-06T17:54:52.752Z,11.07
2022-11-06T17:57:16.448Z,15.37
2022-11-06T17:59:41.284Z,14.83
2022-11-06T18:02:03.100Z,12.47
2022-11-06T18:04:26.830Z,12.20
2022-11-06T18:06:49.873Z,12.60
2022-11-06T18:09:11.943Z,16.10
2022-11-06T18:11:34.597Z,15.87
2022-11-06T18:13:56.320Z,14.47
2022-11-06T18:16:24.695Z,13.47
2022-11-06T18:18:46.456Z,12.50
2022-11-06T18:21:08.031Z,11.83
2022-11-06T18:23:29.802Z,12.83
2022-11-06T18:25:57.450Z,13.03
2022-11-06T18:28:19.749Z,12.07
2022-11-06T18:30:41.406Z,12.07
2022-11-06T18:33:02.896Z,12.07
2022-11-06T18:35:24.546Z,13.03
2022-11-06T18:37:46.086Z,12.67
2022-11-06T18:40:08.100Z,12.37
2022-11-06T18:42:29.586Z,11.93
2022-11-06T18:44:51.059Z,11.63
2022-11-06T18:47:12.517Z,14.07
2022-11-06T18:49:34.035Z,13.63
2022-11-06T18:51:55.514Z,13.77
2022-11-06T18:54:17.116Z,12.97
2022-11-06T18:56:39.109Z,12.90
2022-11-06T18:59:00.682Z,11.17
2022-11-06T19:01:25.934Z,12.83
2022-11-06T19:03:47.670Z,12.80
2022-11-06T19:06:16.123Z,12.80
2022-11-06T19:08:37.940Z,12.80
2022-11-06T19:11:02.183Z,12.30
2022-11-06T19:13:23.697Z,12.87
2022-11-06T19:15:45.446Z,13.07
2022-11-06T19:18:07.067Z,14.10
2022-11-06T19:20:28.599Z,14.13
2022-11-06T19:22:53.903Z,13.20
2022-11-06T19:25:15.481Z,14.07
2022-11-06T19:27:36.950Z,14.00
2022-11-06T19:29:58.411Z,13.90
2022-11-06T19:32:19.901Z,14.77
2022-11-06T19:34:41.773Z,14.73
2022-11-06T19:37:03.270Z,14.87
2022-11-06T19:39:24.805Z,14.10
2022-11-06T19:41:46.393Z,15.53
2022-11-06T19:44:09.699Z,15.93
2022-11-06T19:46:35.672Z,15.77
2022-11-06T19:48:57.963Z,15.23
2022-11-06T19:51:20.833Z,15.13
2022-11-06T19:53:42.863Z,15.40
2022-11-06T19:56:08.986Z,15.43
2022-11-06T19:58:30.584Z,15.33
2022-11-06T20:00:52.068Z,15.30
2022-11-06T20:03:13.875Z,15.77
2022-11-06T20:05:35.723Z,16.53
2022-11-06T20:07:57.189Z,16.83
2022-11-06T20:10:18.634Z,16.27
2022-11-06T20:12:40.164Z,15.07
2022-11-06T20:15:01.636Z,14.67
2022-11-06T20:17:23.148Z,14.90
2022-11-06T20:19:44.634Z,14.33
2022-11-06T20:22:06.108Z,15.17
2022-11-06T20:24:27.563Z,13.87
2022-11-06T20:26:49.154Z,14.47
2022-11-06T20:29:10.657Z,14.37
2022-11-06T20:31:33.267Z,14.87
2022-11-06T20:33:57.613Z,18.27
2022-11-06T20:36:23.220Z,15.17
2022-11-06T20:38:46.041Z,14.87
2022-11-06T20:41:07.770Z,14.73
2022-11-06T20:43:29.211Z,16.10
2022-11-06T20:45:50.931Z,15.87
2022-11-06T20:48:12.426Z,15.87
2022-11-06T20:50:34.139Z,14.07
2022-11-06T20:52:55.617Z,16.47
2022-11-06T20:55:17.089Z,16.27
2022-11-06T20:57:38.577Z,15.37
2022-11-06T21:00:00.039Z,14.53
2022-11-06T21:02:21.661Z,14.10
2022-11-06T21:04:43.360Z,12.80
2022-11-06T21:07:04.884Z,13.90
2022-11-06T21:09:26.361Z,15.67
2022-11-06T21:11:47.834Z,14.17
2022-11-06T21:14:09.336Z,14.03
2022-11-06T21:16:34.047Z,12.37
2022-11-06T21:18:56.157Z,20.93
2022-11-06T21:21:21.624Z,14.80
2022-11-06T21:23:43.398Z,15.80
2022-11-06T21:26:17.013Z,17.13
2022-11-06T21:28:41.071Z,13.63
2022-11-06T21:31:03.370Z,15.90
2022-11-06T21:33:25.195Z,15.07
2022-11-06T21:35:46.689Z,15.90
2022-11-06T21:38:08.645Z,13.77
2022-11-06T21:40:30.249Z,14.30
2022-11-06T21:42:51.744Z,12.17
2022-11-06T21:45:14.915Z,11.20
2022-11-06T21:47:36.788Z,12.33
2022-11-06T21:49:58.254Z,11.73
2022-11-06T21:52:40.211Z,11.93
2022-11-06T21:55:19.980Z,12.70
2022-11-06T21:57:41.483Z,11.83
2022-11-06T22:00:03.335Z,12.23
2022-11-06T22:02:24.942Z,12.87
2022-11-06T22:04:46.792Z,13.70
2022-11-06T22:07:08.283Z,11.10
2022-11-06T22:09:29.783Z,11.13
2022-11-06T22:11:51.280Z,11.10
2022-11-06T22:14:15.463Z,11.13
2022-11-06T22:16:39.738Z,10.33
2022-11-06T22:19:01.469Z,7.77
2022-11-06T22:21:26.013Z,9.80
2022-11-06T22:23:48.084Z,7.30
2022-11-06T22:26:13.338Z,7.57
2022-11-06T22:28:35.200Z,6.20
2022-11-06T22:30:56.773Z,6.57
2022-11-06T22:33:18.260Z,5.77
2022-11-06T22:35:39.723Z,5.53
2022-11-06T22:38:01.166Z,4.30
2022-11-06T22:40:22.650Z,4.60
2022-11-06T22:42:48.520Z,3.87
2022-11-06T22:45:11.154Z,4.00
2022-11-06T22:47:32.914Z,3.93
2022-11-06T22:49:54.387Z,3.90
2022-11-06T22:52:15.907Z,3.77
2022-11-06T22:54:37.380Z,3.53
2022-11-06T22:56:58.851Z,3.30
2022-11-06T22:59:21.611Z,3.43
2022-11-06T23:01:43.819Z,3.20
2022-11-06T23:04:08.924Z,3.23
2022-11-06T23:06:30.916Z,3.03
2022-11-06T23:08:52.747Z,3.03
2022-11-06T23:11:17.236Z,3.17
2022-11-06T23:13:39.837Z,3.10
2022-11-06T23:16:07.319Z,2.77
2022-11-06T23:18:28.864Z,2.83
2022-11-06T23:20:50.383Z,2.97
2022-11-06T23:23:12.024Z,2.50
2022-11-06T23:25:33.698Z,2.90
2022-11-06T23:27:55.715Z,3.33
2022-11-06T23:30:17.251Z,3.07
2022-11-06T23:32:39.886Z,3.07
2022-11-06T23:35:04.456Z,3.30
2022-11-06T23:37:26.713Z,3.77
2022-11-06T23:39:48.316Z,3.10
2022-11-06T23:42:13.381Z,3.00
2022-11-06T23:44:53.322Z,2.50
2022-11-06T23:47:14.811Z,2.63
2022-11-06T23:49:36.299Z,2.50
2022-11-06T23:51:58.075Z,2.23
2022-11-06T23:54:19.544Z,2.63
2022-11-06T23:56:41.208Z,2.43
2022-11-06T23:59:02.802Z,2.60
